• Join FlightAware (Why Join?)
  • Login
  • US Flag 
06:23AM EDT


 

Airport Tracker/Info


-or-


 

Live Flight TrackerFlight Track Log ✈ ARG1285 ✈ 18-Aug-2013 ✈ SCEL / SCL - SABE / AEP

Flight Track Log - Related Links

Times and Time Zones

All times are in EDT time to prevent confusion due to time zone crossing. See the ARG1285 flight status page for this flight to view local times or setup timezone preferences in your user account.

Time Position Orientation Groundspeed Altitude Reporting Facility
EDT Latitude Longitude Course Direction KTS MPH feet Rate Location/Type
01:53PM -33.7650 -70.7840 177° South 365 420 12,600  Level FlightAware
01:54PM -33.8230 -70.7730 171° South 381 438 14,300 3,000 Climbing FlightAware
01:54PM -33.8640 -70.7350 142° Southeast 390 449 15,800 3,480 Climbing FlightAware
01:55PM -33.8970 -70.6820 127° Southeast 400 460 17,300 2,580 Climbing FlightAware
01:56PM -33.9320 -70.6110 121° Southeast 414 476 19,000 2,340 Climbing FlightAware
01:56PM -33.9660 -70.5450 122° Southeast 430 495 20,400 2,220 Climbing FlightAware
01:57PM -33.9970 -70.4670 116° Southeast 449 517 21,800 2,760 Climbing FlightAware
01:57PM -34.0350 -70.3380 110° East 466 536 23,900 2,340 Climbing FlightAware
01:58PM -34.0580 -70.2560 109° East 481 554 24,900 1,680 Climbing FlightAware
01:59PM -34.0940 -70.1300 109° East 509 586 26,200 960 Climbing FlightAware
01:59PM -34.1220 -70.0340 109° East 509 586 26,200  Level FlightAware
02:00PM -34.1450 -69.9520 109° East 509 586 26,200  Level FlightAware
02:01PM -34.1690 -69.8670 109° East 509 586 26,200  Level FlightAware
02:01PM -34.1930 -69.7820 109° East 509 586 26,200  Level FlightAware
02:02PM -34.2170 -69.7000 110° East 509 586 26,200  Level FlightAware
02:03PM -34.2400 -69.6180 109° East 509 586 26,200 180 Level FlightAware
02:05PM -34.2672 -69.2444 95° East  Level Estimated
02:06PM -34.2804 -69.0575 95° East  Level Estimated
02:07PM -34.2933 -68.8705 95° East  Level Estimated
02:08PM -34.3059 -68.6835 95° East  Level Estimated
02:09PM -34.3183 -68.4964 95° East  Level Estimated
02:10PM -34.3303 -68.3093 95° East  Level Estimated
02:11PM -34.3421 -68.1221 94° East  Level Estimated
02:12PM -34.3535 -67.9349 94° East  Level Estimated
02:13PM -34.3647 -67.7476 94° East  Level Estimated
02:14PM -34.3756 -67.5602 94° East  Level Estimated
02:15PM -34.3863 -67.3728 94° East  Level Estimated
02:16PM -34.3966 -67.1854 94° East  Level Estimated
02:17PM -34.4067 -66.9979 94° East  Level Estimated
02:18PM -34.4164 -66.8104 94° East  Level Estimated
02:19PM -34.4259 -66.6228 94° East  Level Estimated
02:20PM -34.4351 -66.4352 93° East  Level Estimated
02:21PM -34.4440 -66.2476 93° East  Level Estimated
02:22PM -34.4526 -66.0599 93° East  Level Estimated
02:23PM -34.4610 -65.8722 93° East  Level Estimated
02:24PM -34.4690 -65.6844 93° East  Level Estimated
02:25PM -34.4768 -65.4966 93° East  Level Estimated
02:26PM -34.4842 -65.3088 93° East  Level Estimated
02:27PM -34.4914 -65.1209 93° East  Level Estimated
02:28PM -34.4983 -64.9330 93° East  Level Estimated
02:29PM -34.5049 -64.7451 92° East  Level Estimated
02:30PM -34.5113 -64.5572 92° East  Level Estimated
02:31PM -34.5173 -64.3692 92° East  Level Estimated
02:32PM -34.5230 -64.1812 92° East  Level Estimated
02:33PM -34.5285 -63.9931 92° East  Level Estimated
02:34PM -34.5337 -63.8051 92° East  Level Estimated
02:35PM -34.5386 -63.6170 92° East  Level Estimated
02:36PM -34.5431 -63.4289 92° East  Level Estimated
02:37PM -34.5474 -63.2408 92° East  Level Estimated
02:38PM -34.5515 -63.0526 92° East  Level Estimated
02:39PM -34.5552 -62.8645 91° East  Level Estimated
02:40PM -34.5586 -62.6763 91° East  Level Estimated
02:41PM -34.5618 -62.4881 91° East  Level Estimated
02:42PM -34.5646 -62.2999 91° East  Level Estimated
02:43PM -34.5672 -62.1117 91° East  Level Estimated
02:44PM -34.5695 -61.9235 91° East  Level Estimated
02:45PM -34.5715 -61.7352 91° East  Level Estimated
02:46PM -34.5732 -61.5470 91° East  Level Estimated
02:47PM -34.5746 -61.3587 91° East  Level Estimated
02:48PM -34.5757 -61.1704 90° East  Level Estimated
02:49PM -34.5766 -60.9822 90° East  Level Estimated
02:50PM -34.5771 -60.7939 90° East  Level Estimated
02:50PM -35.0040 -60.9400 90° East 523 602 37,000  Level FlightAware
02:51PM -34.5774 -60.6057 90° East  Level Estimated
02:51PM -35.0060 -60.8320 91° East 522 601 37,000  Level FlightAware
02:51PM -35.0060 -60.7320 90° East 522 601 37,000  Level FlightAware
02:52PM -35.0060 -60.6420 90° East 522 601 37,000  Level FlightAware
02:53PM -35.0060 -60.5490 90° East 522 601 37,000  Level FlightAware
02:53PM -35.0060 -60.4560 90° East 522 601 37,000 -3,840 Level FlightAware
02:54PM -35.0180 -60.2770 95° East 540 621 32,400 -5,340 Descending FlightAware
02:54PM -35.0180 -60.1640 90° East 533 613 30,700 -2,940 Descending FlightAware
02:55PM -35.0200 -60.0620 91° East 523 602 29,000 -2,640 Descending FlightAware
02:56PM -35.0220 -59.9620 91° East 505 581 27,700 -1,740 Descending FlightAware
02:56PM -35.0230 -59.8650 91° East 471 542 27,000 -1,620 Descending FlightAware
02:57PM -35.0240 -59.7800 91° East 451 519 25,900 -2,040 Descending FlightAware
02:57PM -35.0250 -59.7060 91° East 438 504 24,900 -2,400 Descending FlightAware
02:58PM -35.0270 -59.5980 91° East 431 496 23,000 -2,340 Descending FlightAware
02:59PM -35.0300 -59.5200 93° East 423 487 21,900 -1,920 Descending FlightAware
02:59PM -35.0330 -59.4310 92° East 408 470 20,800 -1,860 Descending FlightAware
03:00PM -35.0360 -59.3550 93° East 398 458 19,700 -1,740 Descending FlightAware
03:00PM -35.0390 -59.2850 93° East 385 443 18,900 -1,620 Descending FlightAware
03:01PM -35.0430 -59.2080 94° East 371 427 17,900 -1,860 Descending FlightAware
03:01PM -35.0470 -59.1340 94° East 363 418 16,700 -2,220 Descending FlightAware
03:02PM -35.0500 -59.0600 93° East 364 419 15,300 -2,580 Descending FlightAware
03:03PM -35.0440 -58.9990 83° East 367 422 13,900 -3,180 Descending FlightAware
03:03PM -35.0320 -58.9770 56° Northeast 370 426 13,100 -3,360 Descending FlightAware
03:03PM -35.0170 -58.9610 41° Northeast 367 422 12,500 -1,320 Descending FlightAware
03:04PM -34.9660 -58.9200 33° Northeast 332 382 12,000 -1,560 Descending FlightAware
03:04PM -34.9220 -58.8850 33° Northeast 329 379 10,700 -1,680 Descending FlightAware
03:05PM -34.8800 -58.8500 34° Northeast 309 356 10,100 -780 Descending FlightAware
03:05PM -34.8580 -58.8330 32° Northeast 290 334 10,000 -840 Descending FlightAware
03:05PM -34.8400 -58.8180 34° Northeast 285 328 9,600 -1,200 Descending FlightAware
03:06PM -34.8180 -58.8020 31° Northeast 272 313 9,300 -900 Descending FlightAware
03:06PM -34.7930 -58.7870 26° Northeast 262 302 9,000 -900 Descending FlightAware
03:06PM -34.7810 -58.7800 26° Northeast 258 297 8,800 -1,980 Descending FlightAware
03:07PM -34.7560 -58.7650 26° Northeast 269 310 7,900 -1,800 Descending FlightAware
03:07PM -34.7360 -58.7530 26° Northeast 264 304 7,600 -1,200 Descending FlightAware
03:07PM -34.7170 -58.7410 27° Northeast 261 300 7,200 -1,440 Descending FlightAware
03:08PM -34.6950 -58.7280 26° Northeast 261 300 6,700 -1,500 Descending FlightAware
03:08PM -34.6780 -58.7160 30° Northeast 263 303 6,300 -1,500 Descending FlightAware
03:08PM -34.6610 -58.6960 44° Northeast 264 304 5,800 -1,500 Descending FlightAware
03:08PM -34.6510 -58.6840 45° Northeast 263 303 5,500 -1,500 Descending FlightAware
03:09PM -34.6310 -58.6580 47° Northeast 262 302 4,900 -1,680 Descending FlightAware
03:09PM -34.6140 -58.6360 47° Northeast 263 303 4,300 -1,680 Descending FlightAware
03:09PM -34.6010 -58.6190 47° Northeast 261 300 3,900 -1,500 Descending FlightAware
03:10PM -34.5830 -58.5980 44° Northeast 258 297 3,400 -1,080 Descending FlightAware
03:10PM -34.5670 -58.5790 44° Northeast 246 283 3,200 -600 Descending FlightAware
03:10PM -34.5500 -58.5610 41° Northeast 231 266 3,000 -660 Descending FlightAware
03:11PM -34.5380 -58.5470 44° Northeast 200 230 2,800 -600 Descending FlightAware
03:11PM -34.5200 -58.5290 39° Northeast 169 194 2,600 -420 Descending FlightAware
03:11PM -34.5190 -58.5260 68° East 165 190 2,600 -1,020 Level FlightAware
03:11PM -34.5160 -58.5200 59° Northeast 162 186 2,400 -1,140 Descending FlightAware
03:11PM -34.5150 -58.5130 80° East 161 185 2,300 -1,200 Descending FlightAware
03:12PM -34.5200 -58.4880 104° East 163 188 1,700 -1,320 Descending FlightAware
03:12PM -34.5270 -58.4740 121° Southeast 155 178 1,300 -1,440 Descending FlightAware
03:13PM -34.5360 -58.4570 123° Southeast 153 176 700 -1,500 Descending FlightAware
03:13PM -34.5410 -58.4480 124° Southeast 152 175 400 -600 Descending FlightAware
03:13PM -34.5550 -58.4220 123° Southeast 145 167 200 -300 Descending FlightAware
03:16PM -34.5500 -58.4167 90° East  Level FlightAware Approximate